Portada
METAR-TAF:

METAR-TAF

Aeroports :

Pago Pago, Illes Perifèriques Menors dels EUA

latitud: 14-20S, longitud: 170-43W, altitud: 3 m

Observació

L'informe es va fer fa 1 hora i 44 minuts, a les 23:50 UTC
Vent 11 kt del Sud-Est
Temperatura 31°C
Humitat 66%
Pressió 1013 hPa
Visibilitat: 19.3 km
Escasses núvols a una alçada de 2000 ft
Núvols disperses a una alçada de 4000 ft
Núvols disperses a una alçada de 23000 ft

METAR: NSTU 152350Z 14011KT 12SM FEW020 SCT040 SCT230 31/24 A2991 RMK SLP129 8/801 T03080241 10308 20276 57010

Hora: 14:34 (01:34 UTC)

Pronòstic

L'informe es va fer fa 2 hores i 10 minuts, a les 23:24 UTC
Pronòstic vàlid del 16 a les 00 UTC al 16 a les 24 UTC
Vent 11 kt del Est/Sud-Est
Visibilitat: 10 km
Núvols disperses a una alçada de 2000 ft
Núvols disperses a una alçada de 4000 ft

TAF: NSTU 152324Z 1600/1624 12011KT P6SM SCT020 SCT040

Observacions i pronòstics meteorològics de més de 4000 aeroports (METAR i TAF).

Les estacions disponibles són els punts grocs i vermells al mapa.

Posi el ratolí al punt desitjat per veure el nom de l'estació.

Feu clic per veure les observacions i els pronòstics meteorològics.

Per canviar el mapa: feu clic els botons verds amb una creu de color negre per apropar; al botó verd amb un guió per allunyar la imatge; o en les fletxes verdes per a mapes adjacents.


METAR-TAF: